sensor_id;sensor_type;location;lat;lon;timestamp;P1;durP1;ratioP1;P2;durP2;ratioP2
10114;SDS011;5097;43.260;27.812;2023-02-01T00:01:05;13.03;;;9.13;;
10114;SDS011;5097;43.260;27.812;2023-02-01T00:03:50;13.63;;;10.00;;
10114;SDS011;5097;43.260;27.812;2023-02-01T00:06:36;13.27;;;10.83;;
10114;SDS011;5097;43.260;27.812;2023-02-01T00:09:20;13.33;;;10.03;;
10114;SDS011;5097;43.260;27.812;2023-02-01T00:12:04;14.97;;;10.50;;
10114;SDS011;5097;43.260;27.812;2023-02-01T00:14:50;13.10;;;10.13;;
10114;SDS011;5097;43.260;27.812;2023-02-01T00:17:34;16.00;;;10.83;;
10114;SDS011;5097;43.260;27.812;2023-02-01T00:20:18;15.10;;;10.77;;
10114;SDS011;5097;43.260;27.812;2023-02-01T00:23:03;11.37;;;9.03;;
10114;SDS011;5097;43.260;27.812;2023-02-01T00:25:49;14.40;;;10.80;;
10114;SDS011;5097;43.260;27.812;2023-02-01T00:28:34;17.70;;;11.13;;
10114;SDS011;5097;43.260;27.812;2023-02-01T00:31:19;15.20;;;11.47;;
10114;SDS011;5097;43.260;27.812;2023-02-01T00:34:04;15.70;;;11.53;;
10114;SDS011;5097;43.260;27.812;2023-02-01T00:36:48;14.90;;;10.67;;
10114;SDS011;5097;43.260;27.812;2023-02-01T00:39:31;12.70;;;9.57;;
10114;SDS011;5097;43.260;27.812;2023-02-01T00:42:16;13.50;;;9.53;;
10114;SDS011;5097;43.260;27.812;2023-02-01T00:45:00;13.20;;;10.70;;
10114;SDS011;5097;43.260;27.812;2023-02-01T00:47:46;14.93;;;10.20;;
10114;SDS011;5097;43.260;27.812;2023-02-01T00:50:30;15.03;;;11.40;;
10114;SDS011;5097;43.260;27.812;2023-02-01T00:53:14;14.90;;;10.00;;
10114;SDS011;5097;43.260;27.812;2023-02-01T00:55:58;13.10;;;9.83;;
10114;SDS011;5097;43.260;27.812;2023-02-01T00:58:42;13.97;;;10.20;;
10114;SDS011;5097;43.260;27.812;2023-02-01T01:01:27;14.13;;;11.50;;
10114;SDS011;5097;43.260;27.812;2023-02-01T01:04:13;16.87;;;11.33;;
10114;SDS011;5097;43.260;27.812;2023-02-01T01:06:56;15.83;;;11.33;;
10114;SDS011;5097;43.260;27.812;2023-02-01T01:09:40;16.63;;;11.20;;
10114;SDS011;5097;43.260;27.812;2023-02-01T01:12:25;14.57;;;11.10;;
10114;SDS011;5097;43.260;27.812;2023-02-01T01:15:09;14.90;;;10.63;;
10114;SDS011;5097;43.260;27.812;2023-02-01T01:17:54;14.53;;;10.37;;
10114;SDS011;5097;43.260;27.812;2023-02-01T01:20:39;18.37;;;12.33;;
10114;SDS011;5097;43.260;27.812;2023-02-01T01:23:25;16.10;;;12.23;;
10114;SDS011;5097;43.260;27.812;2023-02-01T01:26:10;17.60;;;12.37;;
10114;SDS011;5097;43.260;27.812;2023-02-01T01:28:57;19.90;;;11.67;;
10114;SDS011;5097;43.260;27.812;2023-02-01T01:31:42;14.33;;;10.20;;
10114;SDS011;5097;43.260;27.812;2023-02-01T01:34:26;14.50;;;11.03;;
10114;SDS011;5097;43.260;27.812;2023-02-01T01:37:11;16.87;;;13.07;;
10114;SDS011;5097;43.260;27.812;2023-02-01T01:39:55;17.43;;;13.13;;
10114;SDS011;5097;43.260;27.812;2023-02-01T01:42:42;17.33;;;12.23;;
10114;SDS011;5097;43.260;27.812;2023-02-01T01:45:28;14.53;;;10.20;;
10114;SDS011;5097;43.260;27.812;2023-02-01T01:48:15;13.70;;;10.67;;
10114;SDS011;5097;43.260;27.812;2023-02-01T01:51:05;18.97;;;13.80;;
10114;SDS011;5097;43.260;27.812;2023-02-01T01:53:58;17.10;;;12.27;;
10114;SDS011;5097;43.260;27.812;2023-02-01T01:56:48;16.87;;;12.53;;
10114;SDS011;5097;43.260;27.812;2023-02-01T01:59:36;15.83;;;11.93;;
10114;SDS011;5097;43.260;27.812;2023-02-01T02:02:24;17.57;;;12.80;;
10114;SDS011;5097;43.260;27.812;2023-02-01T02:05:08;19.70;;;13.87;;
10114;SDS011;5097;43.260;27.812;2023-02-01T02:07:52;17.70;;;13.20;;
10114;SDS011;5097;43.260;27.812;2023-02-01T02:10:42;16.57;;;12.10;;
10114;SDS011;5097;43.260;27.812;2023-02-01T02:13:45;14.23;;;11.57;;
10114;SDS011;5097;43.260;27.812;2023-02-01T02:16:38;18.63;;;12.17;;
10114;SDS011;5097;43.260;27.812;2023-02-01T02:19:53;14.23;;;11.40;;
10114;SDS011;5097;43.260;27.812;2023-02-01T02:30:14;18.30;;;14.07;;
10114;SDS011;5097;43.260;27.812;2023-02-01T02:36:07;21.87;;;14.43;;
10114;SDS011;5097;43.260;27.812;2023-02-01T02:38:58;26.93;;;17.27;;
10114;SDS011;5097;43.260;27.812;2023-02-01T02:41:50;19.90;;;14.40;;
10114;SDS011;5097;43.260;27.812;2023-02-01T02:45:01;23.90;;;17.20;;
10114;SDS011;5097;43.260;27.812;2023-02-01T02:48:10;21.33;;;14.93;;
10114;SDS011;5097;43.260;27.812;2023-02-01T02:51:01;18.70;;;14.07;;
10114;SDS011;5097;43.260;27.812;2023-02-01T02:54:09;20.13;;;13.47;;
10114;SDS011;5097;43.260;27.812;2023-02-01T02:57:14;17.50;;;13.23;;
10114;SDS011;5097;43.260;27.812;2023-02-01T03:00:20;20.63;;;14.00;;
10114;SDS011;5097;43.260;27.812;2023-02-01T03:03:25;18.93;;;13.63;;
10114;SDS011;5097;43.260;27.812;2023-02-01T03:06:26;18.80;;;14.53;;
10114;SDS011;5097;43.260;27.812;2023-02-01T03:09:14;16.57;;;13.30;;
10114;SDS011;5097;43.260;27.812;2023-02-01T03:12:04;18.10;;;14.47;;
10114;SDS011;5097;43.260;27.812;2023-02-01T03:15:13;18.80;;;13.50;;
10114;SDS011;5097;43.260;27.812;2023-02-01T03:17:59;17.90;;;13.87;;
10114;SDS011;5097;43.260;27.812;2023-02-01T03:20:49;20.03;;;13.23;;
10114;SDS011;5097;43.260;27.812;2023-02-01T03:23:36;19.90;;;15.87;;
10114;SDS011;5097;43.260;27.812;2023-02-01T03:26:22;20.77;;;14.83;;
10114;SDS011;5097;43.260;27.812;2023-02-01T03:29:11;26.50;;;18.70;;
10114;SDS011;5097;43.260;27.812;2023-02-01T03:32:00;21.23;;;16.13;;
10114;SDS011;5097;43.260;27.812;2023-02-01T03:34:44;34.47;;;20.87;;
10114;SDS011;5097;43.260;27.812;2023-02-01T03:37:31;26.40;;;17.43;;
10114;SDS011;5097;43.260;27.812;2023-02-01T03:40:15;29.73;;;19.07;;
10114;SDS011;5097;43.260;27.812;2023-02-01T03:43:06;24.13;;;16.07;;
10114;SDS011;5097;43.260;27.812;2023-02-01T03:45:58;18.90;;;12.97;;
10114;SDS011;5097;43.260;27.812;2023-02-01T03:48:45;18.37;;;14.00;;
10114;SDS011;5097;43.260;27.812;2023-02-01T03:51:30;19.10;;;14.33;;
10114;SDS011;5097;43.260;27.812;2023-02-01T03:54:15;20.97;;;15.03;;
10114;SDS011;5097;43.260;27.812;2023-02-01T03:57:01;19.87;;;14.93;;
10114;SDS011;5097;43.260;27.812;2023-02-01T03:59:52;16.30;;;12.90;;
10114;SDS011;5097;43.260;27.812;2023-02-01T04:02:36;17.73;;;13.37;;
10114;SDS011;5097;43.260;27.812;2023-02-01T04:05:20;20.07;;;14.30;;
10114;SDS011;5097;43.260;27.812;2023-02-01T04:08:10;17.60;;;14.20;;
10114;SDS011;5097;43.260;27.812;2023-02-01T04:10:54;18.93;;;12.83;;
10114;SDS011;5097;43.260;27.812;2023-02-01T04:13:38;19.93;;;13.37;;
10114;SDS011;5097;43.260;27.812;2023-02-01T04:16:23;17.27;;;12.53;;
10114;SDS011;5097;43.260;27.812;2023-02-01T04:19:08;19.40;;;13.60;;
10114;SDS011;5097;43.260;27.812;2023-02-01T04:21:52;19.27;;;14.13;;
10114;SDS011;5097;43.260;27.812;2023-02-01T04:24:36;19.53;;;13.07;;
10114;SDS011;5097;43.260;27.812;2023-02-01T04:27:20;18.93;;;13.80;;
10114;SDS011;5097;43.260;27.812;2023-02-01T04:30:04;17.17;;;13.33;;
10114;SDS011;5097;43.260;27.812;2023-02-01T04:32:53;20.73;;;14.90;;
10114;SDS011;5097;43.260;27.812;2023-02-01T04:35:37;18.97;;;14.80;;
10114;SDS011;5097;43.260;27.812;2023-02-01T04:38:22;18.47;;;14.60;;
10114;SDS011;5097;43.260;27.812;2023-02-01T04:41:05;23.03;;;16.50;;
10114;SDS011;5097;43.260;27.812;2023-02-01T04:43:50;23.40;;;15.80;;
10114;SDS011;5097;43.260;27.812;2023-02-01T04:46:34;22.97;;;17.00;;
10114;SDS011;5097;43.260;27.812;2023-02-01T04:49:20;34.27;;;26.57;;
10114;SDS011;5097;43.260;27.812;2023-02-01T04:52:04;23.00;;;17.97;;
10114;SDS011;5097;43.260;27.812;2023-02-01T04:54:48;18.90;;;14.87;;
10114;SDS011;5097;43.260;27.812;2023-02-01T04:57:32;27.60;;;22.40;;
10114;SDS011;5097;43.260;27.812;2023-02-01T05:00:17;25.20;;;19.27;;
10114;SDS011;5097;43.260;27.812;2023-02-01T05:03:02;21.97;;;16.93;;
10114;SDS011;5097;43.260;27.812;2023-02-01T05:05:48;22.90;;;18.30;;
10114;SDS011;5097;43.260;27.812;2023-02-01T05:08:32;25.43;;;19.17;;
10114;SDS011;5097;43.260;27.812;2023-02-01T05:11:19;27.27;;;18.83;;
10114;SDS011;5097;43.260;27.812;2023-02-01T05:14:20;25.63;;;18.27;;
10114;SDS011;5097;43.260;27.812;2023-02-01T05:17:04;24.37;;;18.80;;
10114;SDS011;5097;43.260;27.812;2023-02-01T05:19:48;26.47;;;18.23;;
10114;SDS011;5097;43.260;27.812;2023-02-01T05:22:33;19.60;;;15.13;;
10114;SDS011;5097;43.260;27.812;2023-02-01T05:25:17;21.83;;;16.27;;
10114;SDS011;5097;43.260;27.812;2023-02-01T05:28:02;18.90;;;13.37;;
10114;SDS011;5097;43.260;27.812;2023-02-01T05:30:46;18.20;;;13.70;;
10114;SDS011;5097;43.260;27.812;2023-02-01T05:33:30;16.30;;;12.73;;
10114;SDS011;5097;43.260;27.812;2023-02-01T05:36:13;18.40;;;13.93;;
10114;SDS011;5097;43.260;27.812;2023-02-01T05:38:59;21.27;;;14.30;;
10114;SDS011;5097;43.260;27.812;2023-02-01T05:41:42;19.17;;;13.97;;
10114;SDS011;5097;43.260;27.812;2023-02-01T05:44:27;21.90;;;16.43;;
10114;SDS011;5097;43.260;27.812;2023-02-01T05:47:11;19.43;;;15.87;;
10114;SDS011;5097;43.260;27.812;2023-02-01T05:49:56;26.03;;;19.97;;
10114;SDS011;5097;43.260;27.812;2023-02-01T05:52:40;24.27;;;18.33;;
10114;SDS011;5097;43.260;27.812;2023-02-01T05:55:26;28.77;;;20.53;;
10114;SDS011;5097;43.260;27.812;2023-02-01T05:58:10;29.03;;;21.27;;
10114;SDS011;5097;43.260;27.812;2023-02-01T06:00:54;26.83;;;21.20;;
10114;SDS011;5097;43.260;27.812;2023-02-01T06:03:38;26.17;;;20.73;;
10114;SDS011;5097;43.260;27.812;2023-02-01T06:06:22;37.07;;;27.83;;
10114;SDS011;5097;43.260;27.812;2023-02-01T06:09:06;66.83;;;54.47;;
10114;SDS011;5097;43.260;27.812;2023-02-01T06:11:51;40.37;;;30.10;;
10114;SDS011;5097;43.260;27.812;2023-02-01T06:14:37;39.57;;;29.10;;
10114;SDS011;5097;43.260;27.812;2023-02-01T06:17:21;42.57;;;28.37;;
10114;SDS011;5097;43.260;27.812;2023-02-01T06:20:05;43.53;;;32.63;;
10114;SDS011;5097;43.260;27.812;2023-02-01T06:22:52;66.67;;;51.67;;
10114;SDS011;5097;43.260;27.812;2023-02-01T06:25:36;39.57;;;29.80;;
10114;SDS011;5097;43.260;27.812;2023-02-01T06:28:22;41.00;;;29.50;;
10114;SDS011;5097;43.260;27.812;2023-02-01T06:31:06;36.17;;;27.00;;
10114;SDS011;5097;43.260;27.812;2023-02-01T06:33:50;37.13;;;26.50;;
10114;SDS011;5097;43.260;27.812;2023-02-01T06:36:35;38.10;;;25.57;;
10114;SDS011;5097;43.260;27.812;2023-02-01T06:39:19;39.33;;;26.47;;
10114;SDS011;5097;43.260;27.812;2023-02-01T06:42:03;32.73;;;24.97;;
10114;SDS011;5097;43.260;27.812;2023-02-01T06:44:49;31.97;;;22.70;;
10114;SDS011;5097;43.260;27.812;2023-02-01T06:47:32;41.63;;;31.17;;
10114;SDS011;5097;43.260;27.812;2023-02-01T06:50:16;46.07;;;32.27;;
10114;SDS011;5097;43.260;27.812;2023-02-01T06:53:00;54.37;;;35.53;;
10114;SDS011;5097;43.260;27.812;2023-02-01T06:55:50;67.37;;;40.57;;
10114;SDS011;5097;43.260;27.812;2023-02-01T06:58:35;78.03;;;50.27;;
10114;SDS011;5097;43.260;27.812;2023-02-01T07:01:22;41.27;;;28.63;;
10114;SDS011;5097;43.260;27.812;2023-02-01T07:04:06;36.33;;;25.90;;
10114;SDS011;5097;43.260;27.812;2023-02-01T07:06:50;24.87;;;19.53;;
10114;SDS011;5097;43.260;27.812;2023-02-01T07:09:33;26.10;;;19.73;;
10114;SDS011;5097;43.260;27.812;2023-02-01T07:12:18;27.27;;;21.10;;
10114;SDS011;5097;43.260;27.812;2023-02-01T07:15:03;27.30;;;20.93;;
10114;SDS011;5097;43.260;27.812;2023-02-01T07:17:48;25.43;;;16.47;;
10114;SDS011;5097;43.260;27.812;2023-02-01T07:20:32;41.07;;;23.33;;
10114;SDS011;5097;43.260;27.812;2023-02-01T07:23:16;16.63;;;13.13;;
10114;SDS011;5097;43.260;27.812;2023-02-01T07:26:01;14.33;;;11.80;;
10114;SDS011;5097;43.260;27.812;2023-02-01T07:28:47;13.13;;;10.40;;
10114;SDS011;5097;43.260;27.812;2023-02-01T07:31:31;15.23;;;12.27;;
10114;SDS011;5097;43.260;27.812;2023-02-01T07:34:16;15.53;;;12.00;;
10114;SDS011;5097;43.260;27.812;2023-02-01T07:37:00;12.83;;;11.07;;
10114;SDS011;5097;43.260;27.812;2023-02-01T07:39:45;11.93;;;9.60;;
10114;SDS011;5097;43.260;27.812;2023-02-01T07:42:28;10.27;;;9.30;;
10114;SDS011;5097;43.260;27.812;2023-02-01T07:45:12;9.53;;;8.40;;
10114;SDS011;5097;43.260;27.812;2023-02-01T07:48:03;13.43;;;9.13;;
10114;SDS011;5097;43.260;27.812;2023-02-01T07:50:56;9.53;;;8.53;;
10114;SDS011;5097;43.260;27.812;2023-02-01T07:53:40;9.77;;;8.70;;
10114;SDS011;5097;43.260;27.812;2023-02-01T07:56:25;11.77;;;8.60;;
10114;SDS011;5097;43.260;27.812;2023-02-01T07:59:09;8.57;;;7.77;;
10114;SDS011;5097;43.260;27.812;2023-02-01T08:01:53;9.97;;;8.97;;
10114;SDS011;5097;43.260;27.812;2023-02-01T08:04:37;10.93;;;8.37;;
10114;SDS011;5097;43.260;27.812;2023-02-01T08:07:22;10.70;;;8.80;;
10114;SDS011;5097;43.260;27.812;2023-02-01T08:10:06;9.53;;;8.20;;
10114;SDS011;5097;43.260;27.812;2023-02-01T08:12:57;10.10;;;7.20;;
10114;SDS011;5097;43.260;27.812;2023-02-01T08:15:41;9.97;;;8.33;;
10114;SDS011;5097;43.260;27.812;2023-02-01T08:18:25;9.03;;;8.00;;
10114;SDS011;5097;43.260;27.812;2023-02-01T08:21:10;10.33;;;7.13;;
10114;SDS011;5097;43.260;27.812;2023-02-01T08:23:57;7.80;;;6.53;;
10114;SDS011;5097;43.260;27.812;2023-02-01T08:26:40;8.87;;;7.97;;
10114;SDS011;5097;43.260;27.812;2023-02-01T08:29:24;8.97;;;7.87;;
10114;SDS011;5097;43.260;27.812;2023-02-01T08:32:08;9.40;;;7.93;;
10114;SDS011;5097;43.260;27.812;2023-02-01T08:34:52;8.47;;;7.10;;
10114;SDS011;5097;43.260;27.812;2023-02-01T08:37:37;7.53;;;6.90;;
10114;SDS011;5097;43.260;27.812;2023-02-01T08:40:22;7.37;;;6.67;;
10114;SDS011;5097;43.260;27.812;2023-02-01T08:43:06;7.07;;;6.40;;
10114;SDS011;5097;43.260;27.812;2023-02-01T08:45:53;6.87;;;5.90;;
10114;SDS011;5097;43.260;27.812;2023-02-01T08:48:39;7.53;;;5.87;;
10114;SDS011;5097;43.260;27.812;2023-02-01T08:51:23;6.63;;;6.03;;
10114;SDS011;5097;43.260;27.812;2023-02-01T08:54:07;8.60;;;6.33;;
10114;SDS011;5097;43.260;27.812;2023-02-01T08:56:52;8.73;;;7.07;;
10114;SDS011;5097;43.260;27.812;2023-02-01T08:59:37;8.40;;;6.30;;
10114;SDS011;5097;43.260;27.812;2023-02-01T09:02:20;10.30;;;6.77;;
10114;SDS011;5097;43.260;27.812;2023-02-01T09:05:04;8.50;;;7.60;;
10114;SDS011;5097;43.260;27.812;2023-02-01T09:07:49;27.97;;;14.07;;
10114;SDS011;5097;43.260;27.812;2023-02-01T09:10:33;18.90;;;10.70;;
10114;SDS011;5097;43.260;27.812;2023-02-01T09:13:20;14.90;;;8.90;;
10114;SDS011;5097;43.260;27.812;2023-02-01T09:16:04;9.17;;;8.13;;
10114;SDS011;5097;43.260;27.812;2023-02-01T09:18:49;6.60;;;6.00;;
10114;SDS011;5097;43.260;27.812;2023-02-01T09:21:52;6.80;;;6.07;;
10114;SDS011;5097;43.260;27.812;2023-02-01T09:24:37;28.53;;;15.53;;
10114;SDS011;5097;43.260;27.812;2023-02-01T09:27:21;7.53;;;5.87;;
10114;SDS011;5097;43.260;27.812;2023-02-01T09:30:07;6.27;;;5.63;;
10114;SDS011;5097;43.260;27.812;2023-02-01T09:32:52;7.13;;;5.43;;
10114;SDS011;5097;43.260;27.812;2023-02-01T09:35:36;10.17;;;7.50;;
10114;SDS011;5097;43.260;27.812;2023-02-01T09:38:20;8.27;;;6.73;;
10114;SDS011;5097;43.260;27.812;2023-02-01T09:41:07;8.43;;;6.40;;
10114;SDS011;5097;43.260;27.812;2023-02-01T09:44:05;7.43;;;6.07;;
10114;SDS011;5097;43.260;27.812;2023-02-01T09:46:57;6.53;;;5.27;;
10114;SDS011;5097;43.260;27.812;2023-02-01T09:49:45;5.37;;;4.87;;
10114;SDS011;5097;43.260;27.812;2023-02-01T09:52:36;5.50;;;5.00;;
10114;SDS011;5097;43.260;27.812;2023-02-01T09:55:27;8.07;;;5.53;;
10114;SDS011;5097;43.260;27.812;2023-02-01T09:58:18;7.67;;;5.00;;
10114;SDS011;5097;43.260;27.812;2023-02-01T10:01:13;7.70;;;5.60;;
10114;SDS011;5097;43.260;27.812;2023-02-01T10:04:03;7.53;;;5.90;;
10114;SDS011;5097;43.260;27.812;2023-02-01T10:06:54;5.90;;;4.93;;
10114;SDS011;5097;43.260;27.812;2023-02-01T10:09:55;14.40;;;9.83;;
10114;SDS011;5097;43.260;27.812;2023-02-01T10:16:12;4.97;;;4.03;;
10114;SDS011;5097;43.260;27.812;2023-02-01T10:19:10;5.40;;;4.70;;
10114;SDS011;5097;43.260;27.812;2023-02-01T10:22:04;5.23;;;4.27;;
10114;SDS011;5097;43.260;27.812;2023-02-01T10:24:52;5.20;;;4.30;;
10114;SDS011;5097;43.260;27.812;2023-02-01T10:27:41;5.97;;;4.10;;
10114;SDS011;5097;43.260;27.812;2023-02-01T10:30:26;5.63;;;4.53;;
10114;SDS011;5097;43.260;27.812;2023-02-01T10:33:17;5.63;;;4.40;;
10114;SDS011;5097;43.260;27.812;2023-02-01T10:36:10;7.07;;;5.23;;
10114;SDS011;5097;43.260;27.812;2023-02-01T10:39:00;5.67;;;4.67;;
10114;SDS011;5097;43.260;27.812;2023-02-01T10:41:47;5.97;;;4.93;;
10114;SDS011;5097;43.260;27.812;2023-02-01T10:44:31;7.83;;;5.33;;
10114;SDS011;5097;43.260;27.812;2023-02-01T10:47:25;5.40;;;4.87;;
10114;SDS011;5097;43.260;27.812;2023-02-01T10:50:12;5.23;;;4.83;;
10114;SDS011;5097;43.260;27.812;2023-02-01T10:53:04;5.87;;;4.83;;
10114;SDS011;5097;43.260;27.812;2023-02-01T10:55:54;4.93;;;4.43;;
10114;SDS011;5097;43.260;27.812;2023-02-01T10:58:42;5.00;;;4.50;;
10114;SDS011;5097;43.260;27.812;2023-02-01T11:01:28;6.60;;;5.40;;
10114;SDS011;5097;43.260;27.812;2023-02-01T11:04:14;5.07;;;4.50;;
10114;SDS011;5097;43.260;27.812;2023-02-01T11:07:05;5.17;;;4.67;;
10114;SDS011;5097;43.260;27.812;2023-02-01T11:09:53;6.67;;;4.67;;
10114;SDS011;5097;43.260;27.812;2023-02-01T11:12:38;5.63;;;4.17;;
10114;SDS011;5097;43.260;27.812;2023-02-01T11:15:22;6.17;;;4.00;;
10114;SDS011;5097;43.260;27.812;2023-02-01T11:18:14;6.57;;;4.40;;
10114;SDS011;5097;43.260;27.812;2023-02-01T11:20:59;4.00;;;3.53;;
10114;SDS011;5097;43.260;27.812;2023-02-01T11:23:44;3.93;;;3.53;;
10114;SDS011;5097;43.260;27.812;2023-02-01T11:26:30;3.90;;;3.27;;
10114;SDS011;5097;43.260;27.812;2023-02-01T11:29:16;4.93;;;3.10;;
10114;SDS011;5097;43.260;27.812;2023-02-01T11:32:04;4.30;;;3.90;;
10114;SDS011;5097;43.260;27.812;2023-02-01T11:34:49;4.23;;;3.70;;
10114;SDS011;5097;43.260;27.812;2023-02-01T11:37:37;4.10;;;3.40;;
10114;SDS011;5097;43.260;27.812;2023-02-01T11:40:26;7.53;;;5.97;;
10114;SDS011;5097;43.260;27.812;2023-02-01T11:43:15;4.27;;;3.57;;
10114;SDS011;5097;43.260;27.812;2023-02-01T11:46:18;4.00;;;3.60;;
10114;SDS011;5097;43.260;27.812;2023-02-01T11:49:13;5.37;;;4.60;;
10114;SDS011;5097;43.260;27.812;2023-02-01T11:52:07;5.03;;;3.90;;
10114;SDS011;5097;43.260;27.812;2023-02-01T11:55:03;5.60;;;4.23;;
10114;SDS011;5097;43.260;27.812;2023-02-01T11:58:19;5.13;;;4.07;;
10114;SDS011;5097;43.260;27.812;2023-02-01T12:01:30;5.67;;;3.30;;
10114;SDS011;5097;43.260;27.812;2023-02-01T12:07:48;4.57;;;3.57;;
10114;SDS011;5097;43.260;27.812;2023-02-01T12:10:45;3.33;;;3.03;;
10114;SDS011;5097;43.260;27.812;2023-02-01T12:13:50;3.23;;;2.97;;
10114;SDS011;5097;43.260;27.812;2023-02-01T12:16:52;3.17;;;2.87;;
10114;SDS011;5097;43.260;27.812;2023-02-01T12:19:56;3.93;;;3.47;;
10114;SDS011;5097;43.260;27.812;2023-02-01T12:22:55;5.20;;;3.70;;
10114;SDS011;5097;43.260;27.812;2023-02-01T12:25:57;7.20;;;3.20;;
10114;SDS011;5097;43.260;27.812;2023-02-01T12:28:59;3.07;;;2.87;;
10114;SDS011;5097;43.260;27.812;2023-02-01T12:31:58;3.53;;;3.23;;
10114;SDS011;5097;43.260;27.812;2023-02-01T12:34:56;3.80;;;3.33;;
10114;SDS011;5097;43.260;27.812;2023-02-01T12:37:59;6.23;;;3.60;;
10114;SDS011;5097;43.260;27.812;2023-02-01T12:40:57;4.20;;;3.80;;
10114;SDS011;5097;43.260;27.812;2023-02-01T12:43:53;4.03;;;3.70;;
10114;SDS011;5097;43.260;27.812;2023-02-01T12:46:43;4.50;;;4.10;;
10114;SDS011;5097;43.260;27.812;2023-02-01T12:49:36;4.33;;;3.43;;
10114;SDS011;5097;43.260;27.812;2023-02-01T12:52:29;3.50;;;3.20;;
10114;SDS011;5097;43.260;27.812;2023-02-01T12:55:20;4.30;;;3.40;;
10114;SDS011;5097;43.260;27.812;2023-02-01T12:58:08;3.83;;;3.30;;
10114;SDS011;5097;43.260;27.812;2023-02-01T13:00:57;3.73;;;3.20;;
10114;SDS011;5097;43.260;27.812;2023-02-01T13:03:56;3.50;;;3.03;;
10114;SDS011;5097;43.260;27.812;2023-02-01T13:06:51;3.97;;;3.50;;
10114;SDS011;5097;43.260;27.812;2023-02-01T13:09:38;4.23;;;3.40;;
10114;SDS011;5097;43.260;27.812;2023-02-01T13:12:32;4.60;;;2.93;;
10114;SDS011;5097;43.260;27.812;2023-02-01T13:15:20;3.40;;;2.47;;
10114;SDS011;5097;43.260;27.812;2023-02-01T13:18:06;3.60;;;2.80;;
10114;SDS011;5097;43.260;27.812;2023-02-01T13:20:59;3.20;;;2.67;;
10114;SDS011;5097;43.260;27.812;2023-02-01T13:23:47;3.60;;;3.30;;
10114;SDS011;5097;43.260;27.812;2023-02-01T13:26:33;3.50;;;3.20;;
10114;SDS011;5097;43.260;27.812;2023-02-01T13:29:17;3.17;;;2.87;;
10114;SDS011;5097;43.260;27.812;2023-02-01T13:32:15;3.50;;;3.20;;
10114;SDS011;5097;43.260;27.812;2023-02-01T13:35:45;4.27;;;3.33;;
10114;SDS011;5097;43.260;27.812;2023-02-01T13:39:06;4.57;;;2.87;;
10114;SDS011;5097;43.260;27.812;2023-02-01T13:42:12;2.90;;;2.70;;
10114;SDS011;5097;43.260;27.812;2023-02-01T13:44:59;2.80;;;2.60;;
10114;SDS011;5097;43.260;27.812;2023-02-01T13:47:48;3.93;;;2.80;;
10114;SDS011;5097;43.260;27.812;2023-02-01T13:50:35;3.37;;;2.47;;
10114;SDS011;5097;43.260;27.812;2023-02-01T13:53:24;3.03;;;2.80;;
10114;SDS011;5097;43.260;27.812;2023-02-01T13:56:13;4.10;;;3.40;;
10114;SDS011;5097;43.260;27.812;2023-02-01T13:58:59;3.10;;;2.90;;
10114;SDS011;5097;43.260;27.812;2023-02-01T14:06:01;17.53;;;12.03;;
10114;SDS011;5097;43.260;27.812;2023-02-01T14:15:20;7.87;;;5.00;;
10114;SDS011;5097;43.260;27.812;2023-02-01T14:21:28;9.47;;;5.63;;
10114;SDS011;5097;43.260;27.812;2023-02-01T14:24:16;5.73;;;2.93;;
10114;SDS011;5097;43.260;27.812;2023-02-01T14:27:18;5.70;;;3.30;;
10114;SDS011;5097;43.260;27.812;2023-02-01T14:30:05;3.33;;;2.97;;
10114;SDS011;5097;43.260;27.812;2023-02-01T14:32:59;3.17;;;2.97;;
10114;SDS011;5097;43.260;27.812;2023-02-01T14:36:01;3.07;;;2.83;;
10114;SDS011;5097;43.260;27.812;2023-02-01T14:38:48;5.00;;;3.40;;
10114;SDS011;5097;43.260;27.812;2023-02-01T14:41:33;4.53;;;3.60;;
10114;SDS011;5097;43.260;27.812;2023-02-01T14:44:26;8.33;;;4.43;;
10114;SDS011;5097;43.260;27.812;2023-02-01T14:50:22;5.93;;;3.80;;
10114;SDS011;5097;43.260;27.812;2023-02-01T14:53:15;7.13;;;3.77;;
10114;SDS011;5097;43.260;27.812;2023-02-01T14:56:06;5.27;;;3.60;;
10114;SDS011;5097;43.260;27.812;2023-02-01T14:58:55;6.97;;;6.37;;
10114;SDS011;5097;43.260;27.812;2023-02-01T15:01:46;6.53;;;5.13;;
10114;SDS011;5097;43.260;27.812;2023-02-01T15:04:40;8.40;;;6.90;;
10114;SDS011;5097;43.260;27.812;2023-02-01T15:07:27;6.17;;;5.43;;
10114;SDS011;5097;43.260;27.812;2023-02-01T15:10:12;6.93;;;6.23;;
10114;SDS011;5097;43.260;27.812;2023-02-01T15:12:56;7.33;;;5.30;;
10114;SDS011;5097;43.260;27.812;2023-02-01T15:15:40;9.53;;;7.17;;
10114;SDS011;5097;43.260;27.812;2023-02-01T15:18:24;13.50;;;9.97;;
10114;SDS011;5097;43.260;27.812;2023-02-01T15:21:15;8.60;;;7.07;;
10114;SDS011;5097;43.260;27.812;2023-02-01T15:24:14;3.90;;;3.60;;
10114;SDS011;5097;43.260;27.812;2023-02-01T15:27:04;4.80;;;3.73;;
10114;SDS011;5097;43.260;27.812;2023-02-01T15:29:49;5.97;;;3.20;;
10114;SDS011;5097;43.260;27.812;2023-02-01T15:32:34;6.63;;;3.40;;
10114;SDS011;5097;43.260;27.812;2023-02-01T15:35:37;3.50;;;3.20;;
10114;SDS011;5097;43.260;27.812;2023-02-01T15:38:34;4.30;;;3.43;;
10114;SDS011;5097;43.260;27.812;2023-02-01T15:41:20;4.67;;;3.70;;
10114;SDS011;5097;43.260;27.812;2023-02-01T15:44:13;5.67;;;4.27;;
10114;SDS011;5097;43.260;27.812;2023-02-01T15:47:06;7.13;;;5.03;;
10114;SDS011;5097;43.260;27.812;2023-02-01T15:49:56;4.37;;;3.90;;
10114;SDS011;5097;43.260;27.812;2023-02-01T15:52:45;3.90;;;3.40;;
10114;SDS011;5097;43.260;27.812;2023-02-01T15:55:33;3.60;;;3.30;;
10114;SDS011;5097;43.260;27.812;2023-02-01T15:58:25;8.37;;;7.33;;
10114;SDS011;5097;43.260;27.812;2023-02-01T16:01:11;12.07;;;8.10;;
10114;SDS011;5097;43.260;27.812;2023-02-01T16:04:02;10.67;;;7.93;;
10114;SDS011;5097;43.260;27.812;2023-02-01T16:06:55;16.33;;;9.13;;
10114;SDS011;5097;43.260;27.812;2023-02-01T16:09:48;9.50;;;8.17;;
10114;SDS011;5097;43.260;27.812;2023-02-01T16:12:44;12.30;;;6.60;;
10114;SDS011;5097;43.260;27.812;2023-02-01T16:15:31;13.53;;;9.00;;
10114;SDS011;5097;43.260;27.812;2023-02-01T16:18:15;10.90;;;8.50;;
10114;SDS011;5097;43.260;27.812;2023-02-01T16:21:00;19.10;;;13.37;;
10114;SDS011;5097;43.260;27.812;2023-02-01T16:23:47;18.47;;;13.10;;
10114;SDS011;5097;43.260;27.812;2023-02-01T16:26:32;18.30;;;10.20;;
10114;SDS011;5097;43.260;27.812;2023-02-01T16:29:16;33.57;;;22.17;;
10114;SDS011;5097;43.260;27.812;2023-02-01T16:32:04;19.57;;;10.73;;
10114;SDS011;5097;43.260;27.812;2023-02-01T16:34:49;9.67;;;7.23;;
10114;SDS011;5097;43.260;27.812;2023-02-01T16:37:33;25.43;;;13.37;;
10114;SDS011;5097;43.260;27.812;2023-02-01T16:40:18;19.00;;;14.50;;
10114;SDS011;5097;43.260;27.812;2023-02-01T16:43:05;21.47;;;15.87;;
10114;SDS011;5097;43.260;27.812;2023-02-01T16:45:55;21.47;;;16.40;;
10114;SDS011;5097;43.260;27.812;2023-02-01T16:48:46;15.47;;;13.70;;
10114;SDS011;5097;43.260;27.812;2023-02-01T16:51:34;17.07;;;12.03;;
10114;SDS011;5097;43.260;27.812;2023-02-01T16:54:18;15.60;;;9.93;;
10114;SDS011;5097;43.260;27.812;2023-02-01T16:57:02;17.73;;;12.47;;
10114;SDS011;5097;43.260;27.812;2023-02-01T16:59:46;16.83;;;12.90;;
10114;SDS011;5097;43.260;27.812;2023-02-01T17:02:29;20.77;;;16.73;;
10114;SDS011;5097;43.260;27.812;2023-02-01T17:05:15;30.87;;;22.67;;
10114;SDS011;5097;43.260;27.812;2023-02-01T17:08:04;24.40;;;18.83;;
10114;SDS011;5097;43.260;27.812;2023-02-01T17:10:50;68.53;;;41.80;;
10114;SDS011;5097;43.260;27.812;2023-02-01T17:13:33;16.20;;;12.47;;